createdAt,value
2023-08-29T00:01:20.867Z,13.33
2023-08-29T00:03:48.512Z,13.17
2023-08-29T00:06:15.733Z,13.22
2023-08-29T00:08:42.370Z,13.25
2023-08-29T00:11:09.013Z,13.31
2023-08-29T00:13:35.668Z,13.34
2023-08-29T00:16:04.017Z,13.32
2023-08-29T00:18:31.469Z,13.28
2023-08-29T00:20:59.228Z,13.21
2023-08-29T00:23:25.773Z,13.14
2023-08-29T00:25:52.721Z,13.08
2023-08-29T00:28:19.871Z,13.15
2023-08-29T00:30:46.504Z,13.05
2023-08-29T00:33:13.842Z,13.02
2023-08-29T00:35:41.036Z,13.08
2023-08-29T00:38:10.524Z,13.15
2023-08-29T00:40:37.181Z,13.12
2023-08-29T00:43:04.408Z,13.12
2023-08-29T00:45:35.443Z,12.92
2023-08-29T00:48:03.028Z,13.14
2023-08-29T00:50:31.387Z,13.24
2023-08-29T00:53:02.048Z,13.30
2023-08-29T00:55:30.264Z,13.34
2023-08-29T00:57:57.709Z,13.15
2023-08-29T01:00:25.982Z,13.04
2023-08-29T01:02:52.640Z,13.05
2023-08-29T01:05:19.352Z,13.17
2023-08-29T01:07:46.276Z,13.21
2023-08-29T01:10:13.176Z,13.10
2023-08-29T01:12:52.661Z,13.14
2023-08-29T01:15:26.373Z,13.21
2023-08-29T01:17:57.655Z,13.14
2023-08-29T01:20:25.387Z,13.20
2023-08-29T01:23:20.414Z,13.31
2023-08-29T01:25:52.863Z,13.30
2023-08-29T01:28:20.882Z,13.37
2023-08-29T01:30:47.986Z,13.48
2023-08-29T01:33:14.934Z,13.40
2023-08-29T01:35:48.394Z,13.41
2023-08-29T01:38:18.549Z,13.54
2023-08-29T01:40:46.057Z,13.50
2023-08-29T01:43:12.856Z,13.50
2023-08-29T01:45:39.605Z,13.59
2023-08-29T01:48:07.700Z,13.66
2023-08-29T01:50:35.943Z,13.56
2023-08-29T01:53:03.766Z,13.54
2023-08-29T01:55:32.614Z,13.52
2023-08-29T01:58:00.710Z,13.58
2023-08-29T02:00:28.629Z,13.58
2023-08-29T02:02:55.742Z,13.57
2023-08-29T02:05:22.910Z,13.60
2023-08-29T02:07:51.015Z,13.42
2023-08-29T02:10:19.810Z,13.35
2023-08-29T02:12:46.965Z,13.53
2023-08-29T02:15:13.647Z,13.39
2023-08-29T02:17:41.013Z,13.46
2023-08-29T02:20:08.478Z,13.50
2023-08-29T02:22:36.244Z,13.55
2023-08-29T02:25:05.811Z,13.55
2023-08-29T02:27:36.189Z,13.33
2023-08-29T02:30:05.735Z,13.32
2023-08-29T02:32:35.386Z,13.24
2023-08-29T02:35:04.759Z,13.20
2023-08-29T02:37:34.059Z,13.23
2023-08-29T02:40:00.711Z,13.32
2023-08-29T02:42:27.646Z,13.51
2023-08-29T02:44:54.195Z,13.41
2023-08-29T02:47:20.975Z,13.45
2023-08-29T02:49:47.847Z,13.34
2023-08-29T02:52:14.498Z,13.19
2023-08-29T02:54:41.485Z,13.21
2023-08-29T02:57:08.067Z,13.35
2023-08-29T02:59:34.733Z,13.19
2023-08-29T03:02:04.064Z,13.11
2023-08-29T03:04:31.538Z,13.14
2023-08-29T03:06:58.221Z,13.13
2023-08-29T03:09:25.682Z,13.06
2023-08-29T03:11:52.346Z,13.10
2023-08-29T03:14:19.225Z,13.14
2023-08-29T03:16:45.938Z,13.25
2023-08-29T03:19:12.630Z,13.26
2023-08-29T03:21:39.174Z,13.23
2023-08-29T03:24:10.267Z,13.27
2023-08-29T03:26:36.969Z,13.16
2023-08-29T03:29:03.802Z,13.07
2023-08-29T03:31:30.747Z,13.04
2023-08-29T03:33:57.361Z,13.11
2023-08-29T03:36:23.929Z,13.14
2023-08-29T03:38:50.988Z,13.20
2023-08-29T03:41:17.811Z,13.25
2023-08-29T03:43:44.738Z,13.10
2023-08-29T03:46:11.458Z,13.20
2023-08-29T03:48:38.787Z,13.12
2023-08-29T03:51:08.661Z,13.12
2023-08-29T03:53:37.035Z,13.24
2023-08-29T03:56:04.989Z,13.20
2023-08-29T03:58:32.202Z,13.30
2023-08-29T04:00:59.942Z,13.29
2023-08-29T04:03:27.346Z,13.38
2023-08-29T04:05:54.236Z,13.49
2023-08-29T04:08:21.154Z,13.51
2023-08-29T04:14:38.886Z,13.22
2023-08-29T04:17:05.990Z,13.25
2023-08-29T04:19:32.829Z,13.10
2023-08-29T04:21:59.377Z,13.03
2023-08-29T04:24:25.841Z,13.05
2023-08-29T04:26:53.004Z,13.19
2023-08-29T04:29:19.484Z,13.15
2023-08-29T04:31:46.298Z,13.24
2023-08-29T04:34:13.205Z,13.24
2023-08-29T04:36:39.818Z,13.23
2023-08-29T04:39:07.490Z,13.31
2023-08-29T04:41:34.003Z,13.29
2023-08-29T04:44:01.213Z,13.37
2023-08-29T04:46:28.122Z,13.40
2023-08-29T04:48:54.690Z,13.43
2023-08-29T04:51:21.327Z,13.42
2023-08-29T04:53:48.255Z,13.36
2023-08-29T04:56:14.957Z,13.38
2023-08-29T04:58:41.991Z,13.34
2023-08-29T05:01:09.922Z,13.37
2023-08-29T05:03:38.217Z,13.42
2023-08-29T05:06:05.019Z,13.54
2023-08-29T05:08:35.868Z,13.60
2023-08-29T05:11:03.641Z,13.55
2023-08-29T05:13:30.666Z,13.59
2023-08-29T05:15:57.188Z,13.60
2023-08-29T05:18:23.753Z,13.59
2023-08-29T05:20:50.581Z,13.61
2023-08-29T05:23:17.572Z,13.71
2023-08-29T05:25:44.304Z,13.79
2023-08-29T05:28:11.612Z,13.87
2023-08-29T05:30:38.268Z,13.99
2023-08-29T05:33:05.427Z,14.12
2023-08-29T05:35:32.159Z,14.05
2023-08-29T05:37:58.693Z,14.25
2023-08-29T05:40:25.266Z,14.14
2023-08-29T05:42:52.304Z,14.24
2023-08-29T05:45:19.129Z,14.31
2023-08-29T05:47:45.719Z,14.33
2023-08-29T05:50:12.741Z,14.48
2023-08-29T05:52:39.622Z,14.40
2023-08-29T05:55:07.437Z,14.33
2023-08-29T05:57:34.539Z,14.34
2023-08-29T06:00:01.237Z,14.10
2023-08-29T06:02:28.829Z,14.15
2023-08-29T06:04:55.769Z,14.22
2023-08-29T06:07:22.392Z,14.27
2023-08-29T06:09:49.318Z,14.25
2023-08-29T06:12:19.869Z,14.24
2023-08-29T06:14:46.483Z,14.28
2023-08-29T06:17:13.194Z,14.37
2023-08-29T06:19:40.348Z,14.35
2023-08-29T06:22:07.695Z,14.32
2023-08-29T06:24:35.036Z,14.34
2023-08-29T06:27:01.512Z,14.32
2023-08-29T06:29:28.336Z,14.39
2023-08-29T06:31:54.995Z,14.47
2023-08-29T06:34:21.591Z,14.50
2023-08-29T06:36:48.119Z,14.55
2023-08-29T06:39:15.132Z,14.61
2023-08-29T06:41:41.753Z,14.66
2023-08-29T06:44:08.560Z,14.62
2023-08-29T06:46:35.233Z,14.53
2023-08-29T06:49:02.168Z,14.57
2023-08-29T06:51:29.644Z,14.67
2023-08-29T06:53:56.452Z,14.70
2023-08-29T06:56:22.968Z,14.84
2023-08-29T06:58:49.501Z,14.86
2023-08-29T07:01:16.869Z,14.93
2023-08-29T07:03:43.573Z,14.96
2023-08-29T07:06:11.081Z,15.13
2023-08-29T07:08:39.108Z,15.14
2023-08-29T07:11:05.759Z,15.04
2023-08-29T07:13:32.220Z,15.12
2023-08-29T07:15:58.881Z,14.92
2023-08-29T07:18:25.686Z,14.95
2023-08-29T07:20:54.003Z,14.86
2023-08-29T07:23:20.551Z,14.90
2023-08-29T07:25:47.640Z,14.84
2023-08-29T07:28:15.087Z,14.94
2023-08-29T07:30:51.159Z,14.94
2023-08-29T07:33:19.192Z,14.90
2023-08-29T07:35:47.970Z,14.88
2023-08-29T07:38:15.585Z,14.96
2023-08-29T07:40:45.181Z,15.07
2023-08-29T07:43:11.805Z,14.94
2023-08-29T07:45:38.697Z,15.09
2023-08-29T07:48:07.094Z,15.25
2023-08-29T07:50:34.608Z,15.07
2023-08-29T07:53:01.436Z,15.28
2023-08-29T07:55:28.102Z,15.32
2023-08-29T07:57:54.732Z,15.27
2023-08-29T08:00:22.498Z,15.48
2023-08-29T08:02:50.274Z,15.45
2023-08-29T08:05:17.605Z,15.41
2023-08-29T08:07:45.874Z,15.42
2023-08-29T08:10:13.971Z,15.42
2023-08-29T08:12:41.707Z,15.49
2023-08-29T08:15:09.702Z,15.64
2023-08-29T08:17:37.730Z,15.65
2023-08-29T08:20:11.671Z,15.88
2023-08-29T08:22:39.708Z,15.74
2023-08-29T08:25:08.686Z,15.82
2023-08-29T08:27:36.010Z,15.87
2023-08-29T08:30:06.579Z,15.90
2023-08-29T08:32:33.156Z,15.73
2023-08-29T08:35:00.945Z,15.93
2023-08-29T08:37:27.479Z,15.76
2023-08-29T08:39:54.612Z,15.61
2023-08-29T08:42:21.475Z,15.83
2023-08-29T08:44:49.562Z,16.00
2023-08-29T08:47:16.153Z,15.98
2023-08-29T08:49:45.067Z,16.02
2023-08-29T08:52:12.568Z,16.17
2023-08-29T08:54:39.822Z,16.18
2023-08-29T08:57:07.382Z,16.53
2023-08-29T08:59:34.976Z,16.70
2023-08-29T09:02:02.435Z,16.77
2023-08-29T09:04:29.372Z,16.89
2023-08-29T09:06:59.052Z,16.75
2023-08-29T09:09:25.735Z,16.55
2023-08-29T09:11:54.271Z,16.46
2023-08-29T09:14:22.771Z,16.40
2023-08-29T09:16:55.693Z,16.32
2023-08-29T09:19:23.686Z,16.38
2023-08-29T09:21:51.057Z,16.53
2023-08-29T09:24:35.002Z,16.84
2023-08-29T09:27:11.259Z,17.23
2023-08-29T09:29:38.098Z,17.16
2023-08-29T09:32:15.246Z,17.16
2023-08-29T09:34:42.643Z,16.75
2023-08-29T09:37:12.043Z,17.10
2023-08-29T09:39:39.479Z,17.27
2023-08-29T09:42:08.392Z,17.48
2023-08-29T09:44:40.045Z,17.76
2023-08-29T09:47:09.262Z,17.65
2023-08-29T09:49:47.033Z,17.71
2023-08-29T09:52:15.147Z,17.74
2023-08-29T09:54:49.564Z,17.84
2023-08-29T09:57:22.917Z,17.96
2023-08-29T09:59:52.993Z,17.67
2023-08-29T10:02:21.768Z,17.38
2023-08-29T10:04:55.743Z,17.36
2023-08-29T10:07:28.127Z,17.76
2023-08-29T10:09:54.974Z,18.12
2023-08-29T10:12:22.607Z,17.89
2023-08-29T10:14:49.718Z,17.76
2023-08-29T10:17:29.862Z,18.10
2023-08-29T10:20:00.247Z,18.19
2023-08-29T10:22:32.727Z,18.40
2023-08-29T10:25:02.598Z,18.26
2023-08-29T10:27:29.440Z,18.54
2023-08-29T10:29:56.426Z,18.82
2023-08-29T10:32:27.910Z,18.92
2023-08-29T10:34:54.898Z,19.03
2023-08-29T10:37:22.648Z,18.92
2023-08-29T10:39:52.121Z,19.14
2023-08-29T10:42:19.189Z,20.45
2023-08-29T10:44:47.947Z,21.01
2023-08-29T10:47:28.714Z,21.23
2023-08-29T10:50:03.493Z,22.02
2023-08-29T10:52:42.778Z,22.78
2023-08-29T10:55:19.872Z,23.15
2023-08-29T10:57:47.225Z,23.73
2023-08-29T11:00:19.887Z,23.75
2023-08-29T11:02:46.496Z,23.65
2023-08-29T11:05:15.536Z,24.52
2023-08-29T11:07:43.692Z,22.95
2023-08-29T11:10:23.340Z,23.16
2023-08-29T11:13:10.605Z,22.54
2023-08-29T11:15:52.574Z,22.31
2023-08-29T11:18:33.992Z,22.52
2023-08-29T11:21:08.911Z,22.34
2023-08-29T11:23:39.942Z,22.09
2023-08-29T11:26:09.307Z,22.00
2023-08-29T11:28:45.794Z,21.96
2023-08-29T11:31:13.404Z,21.77
2023-08-29T11:33:40.104Z,21.03
2023-08-29T11:36:08.308Z,20.85
2023-08-29T11:38:35.647Z,21.28
2023-08-29T11:41:18.053Z,21.33
2023-08-29T11:44:17.167Z,22.08
2023-08-29T11:46:40.659Z,21.62
2023-08-29T11:49:17.304Z,22.39
2023-08-29T11:51:44.344Z,21.50
2023-08-29T11:54:40.765Z,22.66
2023-08-29T11:57:08.896Z,22.17
2023-08-29T11:59:36.125Z,22.38
2023-08-29T12:02:02.692Z,21.85
2023-08-29T12:04:29.664Z,21.97
2023-08-29T12:07:10.101Z,22.48
2023-08-29T12:09:39.032Z,21.43
2023-08-29T12:12:08.544Z,22.05
2023-08-29T12:14:51.166Z,22.62
2023-08-29T12:17:19.153Z,21.70
2023-08-29T12:19:47.193Z,21.88
2023-08-29T12:22:14.953Z,20.94
2023-08-29T12:24:42.090Z,20.22
2023-08-29T12:27:09.160Z,20.60
2023-08-29T12:29:35.735Z,21.39
2023-08-29T12:32:02.610Z,21.72
2023-08-29T12:34:29.274Z,21.98
2023-08-29T12:36:55.985Z,21.69
2023-08-29T12:39:22.569Z,21.28
2023-08-29T12:41:49.496Z,20.91
2023-08-29T12:44:16.145Z,21.74
2023-08-29T12:46:42.800Z,22.18
2023-08-29T12:49:09.689Z,21.88
2023-08-29T12:51:36.371Z,21.74
2023-08-29T12:54:03.736Z,21.47
2023-08-29T12:56:30.536Z,21.28
2023-08-29T12:58:58.484Z,21.51
2023-08-29T13:01:28.894Z,20.77
2023-08-29T13:03:57.441Z,20.52
2023-08-29T13:06:26.451Z,20.86
2023-08-29T13:08:53.588Z,21.25
2023-08-29T13:11:20.320Z,21.43
2023-08-29T13:13:48.509Z,21.02
2023-08-29T13:16:18.966Z,21.25
2023-08-29T13:18:45.844Z,21.60
2023-08-29T13:21:13.307Z,22.06
2023-08-29T13:23:40.358Z,22.03
2023-08-29T13:26:06.935Z,21.89
2023-08-29T13:28:34.174Z,21.79
2023-08-29T13:31:02.112Z,21.21
2023-08-29T13:33:29.058Z,20.83
2023-08-29T13:35:56.237Z,20.88
2023-08-29T13:38:22.915Z,20.73
2023-08-29T13:40:52.434Z,20.48
2023-08-29T13:43:19.411Z,20.66
2023-08-29T13:45:46.129Z,20.25
2023-08-29T13:48:13.025Z,20.61
2023-08-29T13:50:41.106Z,20.78
2023-08-29T13:53:12.688Z,20.76
2023-08-29T13:55:40.114Z,20.88
2023-08-29T13:58:07.264Z,20.79
2023-08-29T14:00:35.103Z,20.58
2023-08-29T14:03:01.849Z,20.46
2023-08-29T14:05:30.250Z,20.49
2023-08-29T14:07:56.669Z,20.47
2023-08-29T14:10:24.853Z,20.95
2023-08-29T14:12:52.106Z,21.35
2023-08-29T14:15:19.177Z,21.28
2023-08-29T14:17:47.047Z,21.55
2023-08-29T14:20:13.909Z,20.94
2023-08-29T14:22:40.508Z,21.24
2023-08-29T14:25:07.345Z,21.11
2023-08-29T14:27:34.396Z,21.00
2023-08-29T14:30:01.600Z,20.98
2023-08-29T14:32:28.493Z,21.09
2023-08-29T14:34:55.172Z,21.33
2023-08-29T14:37:21.667Z,21.16
2023-08-29T14:39:50.406Z,21.48
2023-08-29T14:42:17.203Z,21.18
2023-08-29T14:44:43.842Z,21.51
2023-08-29T14:47:10.638Z,22.25
2023-08-29T14:49:37.237Z,22.00
2023-08-29T14:52:04.395Z,21.97
2023-08-29T14:54:31.563Z,21.21
2023-08-29T14:56:59.515Z,21.51
2023-08-29T14:59:27.856Z,21.37
2023-08-29T15:01:55.943Z,21.12
2023-08-29T15:04:23.272Z,21.08
2023-08-29T15:06:50.488Z,21.53
2023-08-29T15:09:17.610Z,21.78
2023-08-29T15:11:44.912Z,21.31
2023-08-29T15:14:11.465Z,21.12
2023-08-29T15:16:38.057Z,20.93
2023-08-29T15:19:05.047Z,21.05
2023-08-29T15:21:31.587Z,21.09
2023-08-29T15:23:58.292Z,21.35
2023-08-29T15:26:24.976Z,21.16
2023-08-29T15:28:52.798Z,21.01
2023-08-29T15:31:19.741Z,21.32
2023-08-29T15:33:47.549Z,21.42
2023-08-29T15:36:14.036Z,21.46
2023-08-29T15:38:41.207Z,21.67
2023-08-29T15:41:07.992Z,21.79
2023-08-29T15:43:34.596Z,21.69
2023-08-29T15:46:06.481Z,21.59
2023-08-29T15:48:33.179Z,21.15
2023-08-29T15:51:00.089Z,21.57
2023-08-29T15:53:27.236Z,21.72
2023-08-29T15:56:04.086Z,22.10
2023-08-29T15:58:30.875Z,21.67
2023-08-29T16:00:57.788Z,21.76
2023-08-29T16:03:24.566Z,21.69
2023-08-29T16:05:52.334Z,21.90
2023-08-29T16:08:19.610Z,22.17
2023-08-29T16:10:47.256Z,22.43
2023-08-29T16:13:13.711Z,22.60
2023-08-29T16:15:40.305Z,22.30
2023-08-29T16:18:07.371Z,21.89
2023-08-29T16:20:35.561Z,21.19
2023-08-29T16:23:02.559Z,20.93
2023-08-29T16:25:29.221Z,20.89
2023-08-29T16:27:55.884Z,20.53
2023-08-29T16:30:22.869Z,20.29
2023-08-29T16:32:50.126Z,20.13
2023-08-29T16:35:16.828Z,20.16
2023-08-29T16:37:44.031Z,20.23
2023-08-29T16:40:11.917Z,20.59
2023-08-29T16:42:38.923Z,20.15
2023-08-29T16:45:07.172Z,20.04
2023-08-29T16:47:34.872Z,20.22
2023-08-29T16:50:01.529Z,20.36
2023-08-29T16:52:28.925Z,20.66
2023-08-29T16:54:55.544Z,20.79
2023-08-29T16:57:24.052Z,20.73
2023-08-29T16:59:54.821Z,20.89
2023-08-29T17:02:22.048Z,20.98
2023-08-29T17:04:48.729Z,20.63
2023-08-29T17:07:15.773Z,20.38
2023-08-29T17:09:46.308Z,19.89
2023-08-29T17:12:20.774Z,19.82
2023-08-29T17:14:50.563Z,19.95
2023-08-29T17:17:18.158Z,19.89
2023-08-29T17:19:45.216Z,19.83
2023-08-29T17:22:11.814Z,19.86
2023-08-29T17:24:39.024Z,19.71
2023-08-29T17:27:06.311Z,19.62
2023-08-29T17:29:39.700Z,19.59
2023-08-29T17:32:07.751Z,19.23
2023-08-29T17:34:35.112Z,19.00
2023-08-29T17:37:02.240Z,18.74
2023-08-29T17:39:29.695Z,18.87
2023-08-29T17:41:56.671Z,18.70
2023-08-29T17:44:23.833Z,18.72
2023-08-29T17:46:50.762Z,18.49
2023-08-29T17:49:19.191Z,18.34
2023-08-29T17:51:46.693Z,18.18
2023-08-29T17:54:13.444Z,18.11
2023-08-29T17:56:41.441Z,18.15
2023-08-29T17:59:08.452Z,18.06
2023-08-29T18:01:35.652Z,17.97
2023-08-29T18:04:07.591Z,17.73
2023-08-29T18:06:34.166Z,17.61
2023-08-29T18:09:01.180Z,17.29
2023-08-29T18:11:28.592Z,16.95
2023-08-29T18:13:56.214Z,16.96
2023-08-29T18:16:23.273Z,16.70
2023-08-29T18:18:49.999Z,16.88
2023-08-29T18:21:16.738Z,16.74
2023-08-29T18:23:44.327Z,16.54
2023-08-29T18:26:13.870Z,16.51
2023-08-29T18:28:41.155Z,16.69
2023-08-29T18:31:08.458Z,16.48
2023-08-29T18:33:36.422Z,16.45
2023-08-29T18:36:03.330Z,16.32
2023-08-29T18:38:30.472Z,16.13
2023-08-29T18:40:57.222Z,15.97
2023-08-29T18:43:23.753Z,15.80
2023-08-29T18:45:50.647Z,15.58
2023-08-29T18:48:20.265Z,15.47
2023-08-29T18:50:47.297Z,15.36
2023-08-29T18:53:14.448Z,15.32
2023-08-29T18:55:43.351Z,15.35
2023-08-29T18:58:10.364Z,15.20
2023-08-29T19:00:38.584Z,15.11
2023-08-29T19:03:05.594Z,15.03
2023-08-29T19:05:35.012Z,14.98
2023-08-29T19:08:01.870Z,14.95
2023-08-29T19:10:28.523Z,15.06
2023-08-29T19:12:55.155Z,14.95
2023-08-29T19:15:21.759Z,14.81
2023-08-29T19:17:48.451Z,14.72
2023-08-29T19:20:15.417Z,14.90
2023-08-29T19:22:42.062Z,14.59
2023-08-29T19:25:08.798Z,14.76
2023-08-29T19:27:36.082Z,14.57
2023-08-29T19:30:07.836Z,14.41
2023-08-29T19:32:36.189Z,14.36
2023-08-29T19:35:04.985Z,14.63
2023-08-29T19:37:32.337Z,14.54
2023-08-29T19:39:59.112Z,14.37
2023-08-29T19:42:26.615Z,14.19
2023-08-29T19:44:53.109Z,14.19
2023-08-29T19:47:24.544Z,14.26
2023-08-29T19:49:51.659Z,14.38
2023-08-29T19:52:18.868Z,14.17
2023-08-29T19:54:45.868Z,14.11
2023-08-29T19:57:14.315Z,14.27
2023-08-29T19:59:42.123Z,14.41
2023-08-29T20:02:10.364Z,14.39
2023-08-29T20:04:37.916Z,14.18
2023-08-29T20:07:04.732Z,14.17
2023-08-29T20:09:32.568Z,14.15
2023-08-29T20:11:59.459Z,14.12
2023-08-29T20:14:26.101Z,14.05
2023-08-29T20:16:53.737Z,14.05
2023-08-29T20:19:25.010Z,13.96
2023-08-29T20:21:52.419Z,13.91
2023-08-29T20:24:21.232Z,13.85
2023-08-29T20:26:48.160Z,14.01
2023-08-29T20:29:16.477Z,14.23
2023-08-29T20:31:43.600Z,14.18
2023-08-29T20:34:10.568Z,14.23
2023-08-29T20:36:37.615Z,14.28
2023-08-29T20:39:04.832Z,14.18
2023-08-29T20:41:31.421Z,14.13
2023-08-29T20:43:57.890Z,14.09
2023-08-29T20:46:24.658Z,14.03
2023-08-29T20:48:53.159Z,14.19
2023-08-29T20:51:20.486Z,14.22
2023-08-29T20:53:47.504Z,14.19
2023-08-29T20:56:14.132Z,14.08
2023-08-29T20:58:40.804Z,14.05
2023-08-29T21:01:07.541Z,13.99
2023-08-29T21:03:34.539Z,13.97
2023-08-29T21:06:01.367Z,13.73
2023-08-29T21:08:28.575Z,13.64
2023-08-29T21:10:56.676Z,13.75
2023-08-29T21:13:23.903Z,14.04
2023-08-29T21:15:51.789Z,13.76
2023-08-29T21:18:19.760Z,13.61
2023-08-29T21:20:55.400Z,13.67
2023-08-29T21:23:23.089Z,13.62
2023-08-29T21:25:51.092Z,13.55
2023-08-29T21:28:23.902Z,13.76
2023-08-29T21:30:53.035Z,13.79
2023-08-29T21:33:20.418Z,13.61
2023-08-29T21:35:48.971Z,13.53
2023-08-29T21:38:16.361Z,13.57
2023-08-29T21:40:44.598Z,13.72
2023-08-29T21:43:13.329Z,13.96
2023-08-29T21:45:42.675Z,13.84
2023-08-29T21:48:11.112Z,14.10
2023-08-29T21:50:39.567Z,14.00
2023-08-29T21:53:07.302Z,13.89
2023-08-29T21:55:35.985Z,13.83
2023-08-29T21:58:04.191Z,13.98
2023-08-29T22:00:32.433Z,14.00
2023-08-29T22:03:01.053Z,13.89
2023-08-29T22:05:30.473Z,13.83
2023-08-29T22:07:58.416Z,13.85
2023-08-29T22:10:25.859Z,13.96
2023-08-29T22:12:53.093Z,13.96
2023-08-29T22:15:20.586Z,13.88
2023-08-29T22:17:47.377Z,13.90
2023-08-29T22:20:14.112Z,13.79
2023-08-29T22:22:44.011Z,13.83
2023-08-29T22:25:10.923Z,13.99
2023-08-29T22:27:37.767Z,14.07
2023-08-29T22:30:05.397Z,14.02
2023-08-29T22:32:33.345Z,14.06
2023-08-29T22:35:00.766Z,14.14
2023-08-29T22:37:28.120Z,14.03
2023-08-29T22:39:55.135Z,13.94
2023-08-29T22:42:22.032Z,13.95
2023-08-29T22:44:49.071Z,13.99
2023-08-29T22:47:16.852Z,13.90
2023-08-29T22:49:44.802Z,13.79
2023-08-29T22:52:12.460Z,13.95
2023-08-29T22:54:39.676Z,13.80
2023-08-29T22:57:06.324Z,13.75
2023-08-29T22:59:33.406Z,13.92
2023-08-29T23:02:04.079Z,13.88
2023-08-29T23:04:30.958Z,13.79
2023-08-29T23:07:16.313Z,13.97
2023-08-29T23:09:43.605Z,13.86
2023-08-29T23:12:11.063Z,13.90
2023-08-29T23:14:37.776Z,13.96
2023-08-29T23:17:09.019Z,14.02
2023-08-29T23:19:35.805Z,13.93
2023-08-29T23:22:02.679Z,13.96
2023-08-29T23:24:29.375Z,13.90
2023-08-29T23:26:57.454Z,14.01
2023-08-29T23:29:24.014Z,14.02
2023-08-29T23:31:51.377Z,13.97
2023-08-29T23:34:18.102Z,13.93
2023-08-29T23:36:44.603Z,14.01
2023-08-29T23:39:13.347Z,14.02
2023-08-29T23:41:39.976Z,14.03
2023-08-29T23:44:07.066Z,13.93
2023-08-29T23:46:33.956Z,13.92
2023-08-29T23:49:00.458Z,13.97
2023-08-29T23:51:27.676Z,14.00
2023-08-29T23:53:54.322Z,14.03
2023-08-29T23:56:21.888Z,13.98
2023-08-29T23:58:48.525Z,13.75
